sensor_id;sensor_type;location;lat;lon;timestamp;pressure;altitude;pressure_sealevel;temperature;humidity
9474;BME280;8865;47.636;7.692;2022-12-11T00:02:22;97670.31;;;-0.41;100.00
9474;BME280;8865;47.636;7.692;2022-12-11T00:04:48;97676.44;;;-0.44;100.00
9474;BME280;8865;47.636;7.692;2022-12-11T00:07:14;97677.72;;;-0.52;100.00
9474;BME280;8865;47.636;7.692;2022-12-11T00:09:43;97680.38;;;-0.54;100.00
9474;BME280;8865;47.636;7.692;2022-12-11T00:12:09;97690.22;;;-0.62;100.00
9474;BME280;8865;47.636;7.692;2022-12-11T00:14:35;97687.44;;;-0.75;100.00
9474;BME280;8865;47.636;7.692;2022-12-11T00:17:02;97689.16;;;-0.76;100.00
9474;BME280;8865;47.636;7.692;2022-12-11T00:19:28;97692.66;;;-0.77;100.00
9474;BME280;8865;47.636;7.692;2022-12-11T00:21:54;97693.50;;;-0.76;100.00
9474;BME280;8865;47.636;7.692;2022-12-11T00:24:20;97699.31;;;-0.73;100.00
9474;BME280;8865;47.636;7.692;2022-12-11T00:26:46;97704.28;;;-0.69;100.00
9474;BME280;8865;47.636;7.692;2022-12-11T00:29:12;97707.72;;;-0.69;100.00
9474;BME280;8865;47.636;7.692;2022-12-11T00:31:40;97699.00;;;-0.66;100.00
9474;BME280;8865;47.636;7.692;2022-12-11T00:34:07;97689.66;;;-0.67;100.00
9474;BME280;8865;47.636;7.692;2022-12-11T00:36:33;97692.38;;;-0.70;100.00
9474;BME280;8865;47.636;7.692;2022-12-11T00:39:00;97683.88;;;-0.73;100.00
9474;BME280;8865;47.636;7.692;2022-12-11T00:41:27;97680.63;;;-0.76;100.00
9474;BME280;8865;47.636;7.692;2022-12-11T00:43:53;97687.44;;;-0.75;100.00
9474;BME280;8865;47.636;7.692;2022-12-11T00:46:19;97686.59;;;-0.76;100.00
9474;BME280;8865;47.636;7.692;2022-12-11T00:48:45;97686.69;;;-0.77;100.00
9474;BME280;8865;47.636;7.692;2022-12-11T00:51:13;97680.63;;;-0.76;100.00
9474;BME280;8865;47.636;7.692;2022-12-11T00:53:39;97677.47;;;-0.81;100.00
9474;BME280;8865;47.636;7.692;2022-12-11T00:56:13;97681.84;;;-0.83;100.00
9474;BME280;8865;47.636;7.692;2022-12-11T00:58:40;97679.25;;;-0.83;100.00
9474;BME280;8865;47.636;7.692;2022-12-11T01:01:08;97684.41;;;-0.83;100.00
9474;BME280;8865;47.636;7.692;2022-12-11T01:03:34;97686.38;;;-0.88;100.00
9474;BME280;8865;47.636;7.692;2022-12-11T01:06:00;97679.72;;;-0.93;100.00
9474;BME280;8865;47.636;7.692;2022-12-11T01:08:26;97688.22;;;-0.91;100.00
9474;BME280;8865;47.636;7.692;2022-12-11T01:11:01;97686.69;;;-0.95;100.00
9474;BME280;8865;47.636;7.692;2022-12-11T01:13:27;97693.56;;;-0.95;100.00
9474;BME280;8865;47.636;7.692;2022-12-11T01:15:53;97695.28;;;-0.96;100.00
9474;BME280;8865;47.636;7.692;2022-12-11T01:18:19;97697.94;;;-0.97;100.00
9474;BME280;8865;47.636;7.692;2022-12-11T01:20:45;97708.91;;;-0.94;100.00
9474;BME280;8865;47.636;7.692;2022-12-11T01:23:12;97711.56;;;-0.95;100.00
9474;BME280;8865;47.636;7.692;2022-12-11T01:25:38;97707.53;;;-1.01;100.00
9474;BME280;8865;47.636;7.692;2022-12-11T01:28:05;97719.56;;;-1.01;100.00
9474;BME280;8865;47.636;7.692;2022-12-11T01:30:32;97723.03;;;-1.02;100.00
9474;BME280;8865;47.636;7.692;2022-12-11T01:32:58;97725.47;;;-0.99;100.00
9474;BME280;8865;47.636;7.692;2022-12-11T01:35:26;97716.84;;;-0.98;100.00
9474;BME280;8865;47.636;7.692;2022-12-11T01:37:52;97712.47;;;-0.96;100.00
9474;BME280;8865;47.636;7.692;2022-12-11T01:40:19;97717.44;;;-0.93;100.00
9474;BME280;8865;47.636;7.692;2022-12-11T01:42:46;97728.47;;;-0.91;100.00
9474;BME280;8865;47.636;7.692;2022-12-11T01:47:54;97737.41;;;-0.98;100.00
9474;BME280;8865;47.636;7.692;2022-12-11T01:50:22;97734.00;;;-0.99;100.00
9474;BME280;8865;47.636;7.692;2022-12-11T01:52:49;97737.72;;;-1.04;100.00
9474;BME280;8865;47.636;7.692;2022-12-11T01:55:16;97743.75;;;-1.05;100.00
9474;BME280;8865;47.636;7.692;2022-12-11T01:57:44;97754.84;;;-1.05;100.00
9474;BME280;8865;47.636;7.692;2022-12-11T02:00:13;97762.47;;;-1.03;100.00
9474;BME280;8865;47.636;7.692;2022-12-11T02:02:39;97756.44;;;-1.02;100.00
9474;BME280;8865;47.636;7.692;2022-12-11T02:05:06;97746.84;;;-0.99;100.00
9474;BME280;8865;47.636;7.692;2022-12-11T02:07:37;97744.28;;;-0.99;100.00
9474;BME280;8865;47.636;7.692;2022-12-11T02:10:05;97741.78;;;-1.00;100.00
9474;BME280;8865;47.636;7.692;2022-12-11T02:12:51;97746.03;;;-0.99;100.00
9474;BME280;8865;47.636;7.692;2022-12-11T02:15:25;97744.56;;;-1.05;100.00
9474;BME280;8865;47.636;7.692;2022-12-11T02:18:01;97754.63;;;-1.00;100.00
9474;BME280;8865;47.636;7.692;2022-12-11T02:20:32;97754.63;;;-1.00;100.00
9474;BME280;8865;47.636;7.692;2022-12-11T02:28:57;97751.59;;;-1.09;100.00
9474;BME280;8865;47.636;7.692;2022-12-11T02:32:46;97752.72;;;-1.14;100.00
9474;BME280;8865;47.636;7.692;2022-12-11T02:34:59;97749.47;;;-1.18;100.00
9474;BME280;8865;47.636;7.692;2022-12-11T02:37:30;97755.56;;;-1.20;100.00
9474;BME280;8865;47.636;7.692;2022-12-11T02:39:58;97748.13;;;-1.27;100.00
9474;BME280;8865;47.636;7.692;2022-12-11T02:42:27;97742.47;;;-1.33;100.00
9474;BME280;8865;47.636;7.692;2022-12-11T02:44:57;97741.75;;;-1.37;100.00
9474;BME280;8865;47.636;7.692;2022-12-11T02:47:26;97740.31;;;-1.42;100.00
9474;BME280;8865;47.636;7.692;2022-12-11T02:49:54;97739.59;;;-1.46;100.00
9474;BME280;8865;47.636;7.692;2022-12-11T02:52:22;97737.25;;;-1.51;100.00
9474;BME280;8865;47.636;7.692;2022-12-11T02:54:51;97737.38;;;-1.54;100.00
9474;BME280;8865;47.636;7.692;2022-12-11T02:57:35;97731.50;;;-1.56;100.00
9474;BME280;8865;47.636;7.692;2022-12-11T03:00:04;97734.34;;;-1.62;100.00
9474;BME280;8865;47.636;7.692;2022-12-11T03:02:31;97732.81;;;-1.66;100.00
9474;BME280;8865;47.636;7.692;2022-12-11T03:04:58;97739.16;;;-1.73;100.00
9474;BME280;8865;47.636;7.692;2022-12-11T03:07:28;97735.66;;;-1.72;100.00
9474;BME280;8865;47.636;7.692;2022-12-11T03:09:56;97742.59;;;-1.74;100.00
9474;BME280;8865;47.636;7.692;2022-12-11T03:12:28;97735.09;;;-1.79;100.00
9474;BME280;8865;47.636;7.692;2022-12-11T03:15:01;97739.28;;;-1.76;100.00
9474;BME280;8865;47.636;7.692;2022-12-11T03:20:04;97745.25;;;-1.76;100.00
9474;BME280;8865;47.636;7.692;2022-12-11T03:22:43;97750.50;;;-1.79;100.00
9474;BME280;8865;47.636;7.692;2022-12-11T03:28:26;97740.72;;;-1.90;100.00
9474;BME280;8865;47.636;7.692;2022-12-11T03:30:55;97734.97;;;-1.95;100.00
9474;BME280;8865;47.636;7.692;2022-12-11T03:33:30;97743.63;;;-1.98;100.00
9474;BME280;8865;47.636;7.692;2022-12-11T03:36:02;97746.19;;;-1.98;100.00
9474;BME280;8865;47.636;7.692;2022-12-11T03:38:35;97745.38;;;-1.98;100.00
9474;BME280;8865;47.636;7.692;2022-12-11T03:41:04;97751.25;;;-1.96;100.00
9474;BME280;8865;47.636;7.692;2022-12-11T03:43:33;97756.38;;;-1.96;100.00
9474;BME280;8865;47.636;7.692;2022-12-11T03:46:00;97755.56;;;-1.96;100.00
9474;BME280;8865;47.636;7.692;2022-12-11T03:48:31;97755.56;;;-1.96;100.00
9474;BME280;8865;47.636;7.692;2022-12-11T03:50:59;97759.78;;;-1.95;100.00
9474;BME280;8865;47.636;7.692;2022-12-11T03:53:26;97755.44;;;-1.93;100.00
9474;BME280;8865;47.636;7.692;2022-12-11T03:55:55;97756.25;;;-1.93;100.00
9474;BME280;8865;47.636;7.692;2022-12-11T03:58:23;97756.19;;;-1.91;100.00
9474;BME280;8865;47.636;7.692;2022-12-11T04:00:49;97753.63;;;-1.91;100.00
9474;BME280;8865;47.636;7.692;2022-12-11T04:03:14;97746.88;;;-1.94;100.00
9474;BME280;8865;47.636;7.692;2022-12-11T04:05:48;97750.38;;;-1.95;100.00
9474;BME280;8865;47.636;7.692;2022-12-11T04:08:16;97751.94;;;-1.92;100.00
9474;BME280;8865;47.636;7.692;2022-12-11T04:10:43;97746.19;;;-1.98;100.00
9474;BME280;8865;47.636;7.692;2022-12-11T04:13:09;97747.28;;;-2.03;100.00
9474;BME280;8865;47.636;7.692;2022-12-11T04:15:36;97759.34;;;-2.05;100.00
9474;BME280;8865;47.636;7.692;2022-12-11T04:18:03;97764.28;;;-2.01;100.00
9474;BME280;8865;47.636;7.692;2022-12-11T04:20:48;97763.31;;;-1.98;100.00
9474;BME280;8865;47.636;7.692;2022-12-11T04:23:35;97761.38;;;-1.93;100.00
9474;BME280;8865;47.636;7.692;2022-12-11T04:26:20;97758.75;;;-1.91;100.00
9474;BME280;8865;47.636;7.692;2022-12-11T04:28:47;97761.25;;;-1.90;100.00
9474;BME280;8865;47.636;7.692;2022-12-11T04:31:15;97760.28;;;-1.87;100.00
9474;BME280;8865;47.636;7.692;2022-12-11T04:33:42;97759.38;;;-1.86;100.00
9474;BME280;8865;47.636;7.692;2022-12-11T04:36:08;97756.75;;;-1.85;100.00
9474;BME280;8865;47.636;7.692;2022-12-11T04:38:35;97755.03;;;-1.84;100.00
9474;BME280;8865;47.636;7.692;2022-12-11T04:41:05;97748.00;;;-1.81;100.00
9474;BME280;8865;47.636;7.692;2022-12-11T04:43:31;97742.75;;;-1.77;100.00
9474;BME280;8865;47.636;7.692;2022-12-11T04:48:31;97739.41;;;-1.80;100.00
9474;BME280;8865;47.636;7.692;2022-12-11T04:50:57;97741.41;;;-1.86;100.00
9474;BME280;8865;47.636;7.692;2022-12-11T04:53:24;97739.81;;;-1.89;100.00
9474;BME280;8865;47.636;7.692;2022-12-11T04:55:50;97744.97;;;-1.89;100.00
9474;BME280;8865;47.636;7.692;2022-12-11T04:58:16;97744.97;;;-1.89;100.00
9474;BME280;8865;47.636;7.692;2022-12-11T05:00:42;97744.97;;;-1.89;100.00
9474;BME280;8865;47.636;7.692;2022-12-11T05:03:08;97735.44;;;-1.87;100.00
9474;BME280;8865;47.636;7.692;2022-12-11T05:05:34;97729.56;;;-1.89;100.00
9474;BME280;8865;47.636;7.692;2022-12-11T05:08:00;97722.63;;;-1.87;100.00
9474;BME280;8865;47.636;7.692;2022-12-11T05:10:26;97721.84;;;-1.89;100.00
9474;BME280;8865;47.636;7.692;2022-12-11T05:12:52;97714.44;;;-1.95;100.00
9474;BME280;8865;47.636;7.692;2022-12-11T05:15:18;97718.03;;;-1.99;100.00
9474;BME280;8865;47.636;7.692;2022-12-11T05:17:44;97717.53;;;-2.07;100.00
9474;BME280;8865;47.636;7.692;2022-12-11T05:20:11;97718.44;;;-2.08;100.00
9474;BME280;8865;47.636;7.692;2022-12-11T05:22:37;97720.19;;;-2.09;100.00
9474;BME280;8865;47.636;7.692;2022-12-11T05:25:05;97723.75;;;-2.13;100.00
9474;BME280;8865;47.636;7.692;2022-12-11T05:27:32;97710.28;;;-2.18;100.00
9474;BME280;8865;47.636;7.692;2022-12-11T05:29:58;97712.78;;;-2.17;100.00
9474;BME280;8865;47.636;7.692;2022-12-11T05:32:24;97714.53;;;-2.17;100.00
9474;BME280;8865;47.636;7.692;2022-12-11T05:34:50;97716.19;;;-2.16;100.00
9474;BME280;8865;47.636;7.692;2022-12-11T05:37:16;97717.03;;;-2.16;100.00
9474;BME280;8865;47.636;7.692;2022-12-11T05:39:42;97717.16;;;-2.19;100.00
9474;BME280;8865;47.636;7.692;2022-12-11T05:42:08;97721.78;;;-2.27;100.00
9474;BME280;8865;47.636;7.692;2022-12-11T05:44:34;97718.31;;;-2.26;100.00
9474;BME280;8865;47.636;7.692;2022-12-11T05:47:00;97721.00;;;-2.29;100.00
9474;BME280;8865;47.636;7.692;2022-12-11T05:49:26;97710.81;;;-2.30;100.00
9474;BME280;8865;47.636;7.692;2022-12-11T05:51:52;97716.88;;;-2.31;100.00
9474;BME280;8865;47.636;7.692;2022-12-11T05:54:18;97715.19;;;-2.33;100.00
9474;BME280;8865;47.636;7.692;2022-12-11T05:56:45;97715.13;;;-2.31;100.00
9474;BME280;8865;47.636;7.692;2022-12-11T05:59:11;97709.22;;;-2.33;100.00
9474;BME280;8865;47.636;7.692;2022-12-11T06:01:40;97716.00;;;-2.32;100.00
9474;BME280;8865;47.636;7.692;2022-12-11T06:04:07;97711.88;;;-2.35;100.00
9474;BME280;8865;47.636;7.692;2022-12-11T06:06:34;97712.75;;;-2.36;100.00
9474;BME280;8865;47.636;7.692;2022-12-11T06:09:01;97718.06;;;-2.40;100.00
9474;BME280;8865;47.636;7.692;2022-12-11T06:11:29;97719.09;;;-2.44;100.00
9474;BME280;8865;47.636;7.692;2022-12-11T06:13:56;97708.97;;;-2.47;100.00
9474;BME280;8865;47.636;7.692;2022-12-11T06:16:22;97722.84;;;-2.52;100.00
9474;BME280;8865;47.636;7.692;2022-12-11T06:18:50;97717.91;;;-2.56;100.00
9474;BME280;8865;47.636;7.692;2022-12-11T06:21:21;97717.09;;;-2.58;100.00
9474;BME280;8865;47.636;7.692;2022-12-11T06:23:50;97714.66;;;-2.61;100.00
9474;BME280;8865;47.636;7.692;2022-12-11T06:26:17;97707.09;;;-2.64;100.00
9474;BME280;8865;47.636;7.692;2022-12-11T06:28:45;97715.66;;;-2.64;100.00
9474;BME280;8865;47.636;7.692;2022-12-11T06:31:11;97713.97;;;-2.65;100.00
9474;BME280;8865;47.636;7.692;2022-12-11T06:33:37;97717.63;;;-2.71;100.00
9474;BME280;8865;47.636;7.692;2022-12-11T06:36:05;97719.34;;;-2.71;100.00
9474;BME280;8865;47.636;7.692;2022-12-11T06:38:31;97727.81;;;-2.69;100.00
9474;BME280;8865;47.636;7.692;2022-12-11T06:40:58;97732.28;;;-2.74;100.00
9474;BME280;8865;47.636;7.692;2022-12-11T06:43:24;97723.84;;;-2.76;100.00
9474;BME280;8865;47.636;7.692;2022-12-11T06:45:51;97721.34;;;-2.78;100.00
9474;BME280;8865;47.636;7.692;2022-12-11T06:48:18;97716.59;;;-2.87;100.00
9474;BME280;8865;47.636;7.692;2022-12-11T06:50:45;97713.31;;;-2.91;100.00
9474;BME280;8865;47.636;7.692;2022-12-11T06:53:12;97720.34;;;-2.96;100.00
9474;BME280;8865;47.636;7.692;2022-12-11T06:55:38;97731.63;;;-3.00;100.00
9474;BME280;8865;47.636;7.692;2022-12-11T06:58:04;97734.16;;;-3.00;100.00
9474;BME280;8865;47.636;7.692;2022-12-11T07:00:30;97733.28;;;-2.99;100.00
9474;BME280;8865;47.636;7.692;2022-12-11T07:02:56;97741.81;;;-2.98;100.00
9474;BME280;8865;47.636;7.692;2022-12-11T07:05:22;97739.47;;;-3.05;100.00
9474;BME280;8865;47.636;7.692;2022-12-11T07:07:48;97744.78;;;-3.09;100.00
9474;BME280;8865;47.636;7.692;2022-12-11T07:10:14;97746.53;;;-3.10;100.00
9474;BME280;8865;47.636;7.692;2022-12-11T07:12:40;97745.63;;;-3.09;100.00
9474;BME280;8865;47.636;7.692;2022-12-11T07:15:06;97746.47;;;-3.08;100.00
9474;BME280;8865;47.636;7.692;2022-12-11T07:17:32;97751.75;;;-3.13;100.00
9474;BME280;8865;47.636;7.692;2022-12-11T07:19:58;97752.34;;;-3.06;100.00
9474;BME280;8865;47.636;7.692;2022-12-11T07:22:25;97753.16;;;-3.04;100.00
9474;BME280;8865;47.636;7.692;2022-12-11T07:24:51;97746.41;;;-3.07;100.00
9474;BME280;8865;47.636;7.692;2022-12-11T07:27:17;97742.78;;;-3.01;100.00
9474;BME280;8865;47.636;7.692;2022-12-11T07:29:43;97746.84;;;-2.97;100.00
9474;BME280;8865;47.636;7.692;2022-12-11T07:32:09;97745.84;;;-2.93;100.00
9474;BME280;8865;47.636;7.692;2022-12-11T07:34:36;97745.84;;;-2.93;100.00
9474;BME280;8865;47.636;7.692;2022-12-11T07:37:02;97740.72;;;-2.93;100.00
9474;BME280;8865;47.636;7.692;2022-12-11T07:39:28;97743.22;;;-2.91;100.00
9474;BME280;8865;47.636;7.692;2022-12-11T07:41:54;97743.16;;;-2.90;100.00
9474;BME280;8865;47.636;7.692;2022-12-11T07:44:20;97742.97;;;-2.85;100.00
9474;BME280;8865;47.636;7.692;2022-12-11T07:46:45;97746.25;;;-2.81;100.00
9474;BME280;8865;47.636;7.692;2022-12-11T07:49:11;97749.06;;;-2.88;100.00
9474;BME280;8865;47.636;7.692;2022-12-11T07:51:38;97747.34;;;-2.87;100.00
9474;BME280;8865;47.636;7.692;2022-12-11T07:54:06;97749.91;;;-2.87;100.00
9474;BME280;8865;47.636;7.692;2022-12-11T07:56:34;97750.84;;;-2.90;100.00
9474;BME280;8865;47.636;7.692;2022-12-11T07:59:02;97754.31;;;-2.91;100.00
9474;BME280;8865;47.636;7.692;2022-12-11T08:01:30;97747.66;;;-2.95;100.00
9474;BME280;8865;47.636;7.692;2022-12-11T08:03:56;97750.97;;;-2.93;100.00
9474;BME280;8865;47.636;7.692;2022-12-11T08:06:28;97737.97;;;-2.88;100.00
9474;BME280;8865;47.636;7.692;2022-12-11T08:08:56;97753.22;;;-2.85;100.00
9474;BME280;8865;47.636;7.692;2022-12-11T08:11:22;97745.38;;;-2.80;100.00
9474;BME280;8865;47.636;7.692;2022-12-11T08:13:49;97745.81;;;-2.71;100.00
9474;BME280;8865;47.636;7.692;2022-12-11T08:16:15;97758.25;;;-2.61;100.00
9474;BME280;8865;47.636;7.692;2022-12-11T08:18:43;97756.03;;;-2.48;100.00
9474;BME280;8865;47.636;7.692;2022-12-11T08:21:13;97763.16;;;-2.35;100.00
9474;BME280;8865;47.636;7.692;2022-12-11T08:23:40;97753.97;;;-2.20;100.00
9474;BME280;8865;47.636;7.692;2022-12-11T08:26:09;97750.09;;;-2.09;100.00
9474;BME280;8865;47.636;7.692;2022-12-11T08:28:36;97751.13;;;-1.93;100.00
9474;BME280;8865;47.636;7.692;2022-12-11T08:31:04;97748.69;;;-1.77;100.00
9474;BME280;8865;47.636;7.692;2022-12-11T08:33:31;97745.22;;;-1.57;100.00
9474;BME280;8865;47.636;7.692;2022-12-11T08:35:57;97741.63;;;-1.53;100.00
9474;BME280;8865;47.636;7.692;2022-12-11T08:38:23;97751.63;;;-1.47;100.00
9474;BME280;8865;47.636;7.692;2022-12-11T08:40:49;97753.78;;;-1.37;100.00
9474;BME280;8865;47.636;7.692;2022-12-11T08:43:15;97748.28;;;-1.30;100.00
9474;BME280;8865;47.636;7.692;2022-12-11T08:45:41;97742.09;;;-1.26;100.00
9474;BME280;8865;47.636;7.692;2022-12-11T08:48:07;97743.06;;;-1.28;100.00
9474;BME280;8865;47.636;7.692;2022-12-11T08:50:33;97743.97;;;-1.29;100.00
9474;BME280;8865;47.636;7.692;2022-12-11T08:52:59;97738.63;;;-1.24;100.00
9474;BME280;8865;47.636;7.692;2022-12-11T08:55:25;97738.97;;;-1.32;100.00
9474;BME280;8865;47.636;7.692;2022-12-11T08:57:51;97739.13;;;-1.35;100.00
9474;BME280;8865;47.636;7.692;2022-12-11T09:00:17;97736.41;;;-1.32;100.00
9474;BME280;8865;47.636;7.692;2022-12-11T09:02:43;97733.16;;;-1.36;100.00
9474;BME280;8865;47.636;7.692;2022-12-11T09:05:09;97729.41;;;-1.29;100.00
9474;BME280;8865;47.636;7.692;2022-12-11T09:07:36;97719.66;;;-1.22;100.00
9474;BME280;8865;47.636;7.692;2022-12-11T09:10:05;97718.94;;;-1.06;100.00
9474;BME280;8865;47.636;7.692;2022-12-11T09:12:32;97718.78;;;-1.03;100.00
9474;BME280;8865;47.636;7.692;2022-12-11T09:14:59;97715.19;;;-0.99;100.00
9474;BME280;8865;47.636;7.692;2022-12-11T09:17:25;97716.72;;;-0.78;100.00
9474;BME280;8865;47.636;7.692;2022-12-11T09:19:51;97715.81;;;-0.59;100.00
9474;BME280;8865;47.636;7.692;2022-12-11T09:22:17;97718.28;;;-0.40;100.00
9474;BME280;8865;47.636;7.692;2022-12-11T09:24:43;97709.94;;;0.06;100.00
9474;BME280;8865;47.636;7.692;2022-12-11T09:27:11;97703.41;;;0.32;100.00
9474;BME280;8865;47.636;7.692;2022-12-11T09:29:38;97700.34;;;0.25;100.00
9474;BME280;8865;47.636;7.692;2022-12-11T09:32:07;97699.09;;;0.32;100.00
9474;BME280;8865;47.636;7.692;2022-12-11T09:34:33;97692.19;;;0.33;100.00
9474;BME280;8865;47.636;7.692;2022-12-11T09:36:59;97695.44;;;0.37;100.00
9474;BME280;8865;47.636;7.692;2022-12-11T09:39:25;97691.97;;;0.38;100.00
9474;BME280;8865;47.636;7.692;2022-12-11T09:44:56;97689.94;;;0.43;100.00
9474;BME280;8865;47.636;7.692;2022-12-11T09:49:55;97678.38;;;0.82;100.00
9474;BME280;8865;47.636;7.692;2022-12-11T09:53:15;97674.06;;;1.13;100.00
9474;BME280;8865;47.636;7.692;2022-12-11T09:55:19;97667.03;;;1.31;100.00
9474;BME280;8865;47.636;7.692;2022-12-11T09:58:10;97664.81;;;1.39;100.00
9474;BME280;8865;47.636;7.692;2022-12-11T10:00:46;97661.78;;;1.32;100.00
9474;BME280;8865;47.636;7.692;2022-12-11T10:09:02;97650.38;;;2.77;100.00
9474;BME280;8865;47.636;7.692;2022-12-11T10:11:51;97650.59;;;2.87;100.00
9474;BME280;8865;47.636;7.692;2022-12-11T10:17:18;97632.69;;;7.44;74.77
9474;BME280;8865;47.636;7.692;2022-12-11T10:19:45;97632.81;;;7.21;68.85
9474;BME280;8865;47.636;7.692;2022-12-11T10:22:20;97620.38;;;6.05;71.11
9474;BME280;8865;47.636;7.692;2022-12-11T10:24:56;97623.19;;;5.10;78.14
9474;BME280;8865;47.636;7.692;2022-12-11T10:27:34;97625.72;;;4.39;83.93
9474;BME280;8865;47.636;7.692;2022-12-11T10:30:20;97607.72;;;3.74;93.67
9474;BME280;8865;47.636;7.692;2022-12-11T10:35:51;97602.16;;;3.16;100.00
9474;BME280;8865;47.636;7.692;2022-12-11T10:38:30;97595.97;;;3.32;100.00
9474;BME280;8865;47.636;7.692;2022-12-11T10:41:02;97589.50;;;3.76;100.00
9474;BME280;8865;47.636;7.692;2022-12-11T10:43:40;97579.97;;;3.64;99.92
9474;BME280;8865;47.636;7.692;2022-12-11T10:46:18;97579.59;;;3.31;100.00
9474;BME280;8865;47.636;7.692;2022-12-11T10:48:53;97576.88;;;2.94;100.00
9474;BME280;8865;47.636;7.692;2022-12-11T10:51:40;97575.06;;;2.69;100.00
9474;BME280;8865;47.636;7.692;2022-12-11T10:56:51;97580.81;;;2.20;100.00
9474;BME280;8865;47.636;7.692;2022-12-11T10:59:26;97571.69;;;2.00;100.00
9474;BME280;8865;47.636;7.692;2022-12-11T11:01:56;97573.09;;;1.91;100.00
9474;BME280;8865;47.636;7.692;2022-12-11T11:04:28;97571.63;;;1.87;100.00
9474;BME280;8865;47.636;7.692;2022-12-11T11:07:09;97570.38;;;1.65;100.00
9474;BME280;8865;47.636;7.692;2022-12-11T11:09:37;97565.13;;;1.67;100.00
9474;BME280;8865;47.636;7.692;2022-12-11T11:14:42;97566.66;;;1.84;100.00
9474;BME280;8865;47.636;7.692;2022-12-11T11:17:15;97560.78;;;1.82;100.00
9474;BME280;8865;47.636;7.692;2022-12-11T11:19:45;97556.63;;;1.79;100.00
9474;BME280;8865;47.636;7.692;2022-12-11T11:22:15;97566.88;;;1.66;100.00
9474;BME280;8865;47.636;7.692;2022-12-11T11:24:55;97558.47;;;1.63;100.00
9474;BME280;8865;47.636;7.692;2022-12-11T11:27:35;97561.72;;;1.66;100.00
9474;BME280;8865;47.636;7.692;2022-12-11T11:30:09;97561.72;;;1.66;100.00
9474;BME280;8865;47.636;7.692;2022-12-11T11:32:42;97560.69;;;1.69;100.00
9474;BME280;8865;47.636;7.692;2022-12-11T11:37:39;97562.59;;;1.79;100.00
9474;BME280;8865;47.636;7.692;2022-12-11T11:40:14;97561.66;;;1.95;100.00
9474;BME280;8865;47.636;7.692;2022-12-11T11:45:18;97554.13;;;2.59;100.00
9474;BME280;8865;47.636;7.692;2022-12-11T11:50:34;97550.41;;;3.16;100.00
9474;BME280;8865;47.636;7.692;2022-12-11T11:53:12;97541.19;;;3.25;100.00
9474;BME280;8865;47.636;7.692;2022-12-11T11:58:44;97533.75;;;3.08;100.00
9474;BME280;8865;47.636;7.692;2022-12-11T12:01:18;97529.88;;;3.13;100.00
9474;BME280;8865;47.636;7.692;2022-12-11T12:03:45;97518.84;;;2.98;100.00
9474;BME280;8865;47.636;7.692;2022-12-11T12:12:02;97514.59;;;2.84;100.00
9474;BME280;8865;47.636;7.692;2022-12-11T12:20:03;97522.03;;;2.89;100.00
9474;BME280;8865;47.636;7.692;2022-12-11T12:22:52;97521.84;;;2.92;100.00
9474;BME280;8865;47.636;7.692;2022-12-11T12:25:52;97527.41;;;2.86;100.00
9474;BME280;8865;47.636;7.692;2022-12-11T12:36:25;97538.06;;;3.46;100.00
9474;BME280;8865;47.636;7.692;2022-12-11T12:42:01;97533.97;;;7.20;80.37
9474;BME280;8865;47.636;7.692;2022-12-11T12:47:21;97529.97;;;8.76;61.64
9474;BME280;8865;47.636;7.692;2022-12-11T12:49:48;97525.13;;;9.01;61.07
9474;BME280;8865;47.636;7.692;2022-12-11T12:52:19;97513.16;;;10.29;56.68
9474;BME280;8865;47.636;7.692;2022-12-11T12:54:53;97519.25;;;10.48;51.37
9474;BME280;8865;47.636;7.692;2022-12-11T12:58:02;97521.13;;;9.54;53.97
9474;BME280;8865;47.636;7.692;2022-12-11T13:05:36;97530.28;;;7.43;59.58
9474;BME280;8865;47.636;7.692;2022-12-11T13:08:05;97524.06;;;6.92;61.96
9474;BME280;8865;47.636;7.692;2022-12-11T13:10:33;97531.63;;;6.53;64.28
9474;BME280;8865;47.636;7.692;2022-12-11T13:13:02;97530.69;;;6.11;66.55
9474;BME280;8865;47.636;7.692;2022-12-11T13:15:38;97528.16;;;5.65;71.45
9474;BME280;8865;47.636;7.692;2022-12-11T13:18:31;97533.44;;;5.18;76.54
9474;BME280;8865;47.636;7.692;2022-12-11T13:20:58;97521.69;;;4.79;81.64
9474;BME280;8865;47.636;7.692;2022-12-11T13:23:30;97526.53;;;4.48;88.71
9474;BME280;8865;47.636;7.692;2022-12-11T13:26:02;97528.09;;;4.26;94.27
9474;BME280;8865;47.636;7.692;2022-12-11T13:28:48;97528.81;;;4.04;94.92
9474;BME280;8865;47.636;7.692;2022-12-11T13:33:48;97531.53;;;3.90;98.62
9474;BME280;8865;47.636;7.692;2022-12-11T13:38:57;97533.69;;;5.61;84.88
9474;BME280;8865;47.636;7.692;2022-12-11T13:41:26;97528.22;;;6.41;74.99
9474;BME280;8865;47.636;7.692;2022-12-11T13:43:53;97522.09;;;6.31;74.79
9474;BME280;8865;47.636;7.692;2022-12-11T13:46:23;97530.03;;;5.75;72.79
9474;BME280;8865;47.636;7.692;2022-12-11T13:48:53;97527.66;;;5.26;77.88
9474;BME280;8865;47.636;7.692;2022-12-11T13:51:23;97528.41;;;4.81;82.75
9474;BME280;8865;47.636;7.692;2022-12-11T13:56:32;97530.56;;;4.04;92.28
9474;BME280;8865;47.636;7.692;2022-12-11T13:58:58;97535.75;;;3.67;94.15
9474;BME280;8865;47.636;7.692;2022-12-11T14:01:28;97540.66;;;3.33;96.56
9474;BME280;8865;47.636;7.692;2022-12-11T14:04:08;97544.81;;;3.10;100.00
9474;BME280;8865;47.636;7.692;2022-12-11T14:06:37;97543.97;;;2.83;100.00
9474;BME280;8865;47.636;7.692;2022-12-11T14:09:05;97553.63;;;2.67;100.00
9474;BME280;8865;47.636;7.692;2022-12-11T14:11:40;97554.63;;;2.52;100.00
9474;BME280;8865;47.636;7.692;2022-12-11T14:14:16;97553.53;;;2.28;100.00
9474;BME280;8865;47.636;7.692;2022-12-11T14:16:46;97550.91;;;2.16;100.00
9474;BME280;8865;47.636;7.692;2022-12-11T14:19:17;97549.50;;;1.97;100.00
9474;BME280;8865;47.636;7.692;2022-12-11T14:21:58;97550.16;;;1.86;100.00
9474;BME280;8865;47.636;7.692;2022-12-11T14:24:25;97547.00;;;1.81;100.00
9474;BME280;8865;47.636;7.692;2022-12-11T14:26:52;97541.41;;;1.74;100.00
9474;BME280;8865;47.636;7.692;2022-12-11T14:31:49;97547.16;;;1.51;100.00
9474;BME280;8865;47.636;7.692;2022-12-11T14:34:31;97544.56;;;1.36;100.00
9474;BME280;8865;47.636;7.692;2022-12-11T14:37:01;97541.81;;;1.25;100.00
9474;BME280;8865;47.636;7.692;2022-12-11T14:39:37;97543.19;;;1.16;100.00
9474;BME280;8865;47.636;7.692;2022-12-11T14:42:07;97542.00;;;1.08;100.00
9474;BME280;8865;47.636;7.692;2022-12-11T14:44:45;97545.84;;;1.00;100.00
9474;BME280;8865;47.636;7.692;2022-12-11T14:47:20;97550.78;;;0.89;100.00
9474;BME280;8865;47.636;7.692;2022-12-11T14:52:31;97539.59;;;0.60;100.00
9474;BME280;8865;47.636;7.692;2022-12-11T14:55:22;97547.91;;;0.49;100.00
9474;BME280;8865;47.636;7.692;2022-12-11T14:57:52;97546.81;;;0.39;100.00
9474;BME280;8865;47.636;7.692;2022-12-11T15:00:22;97549.81;;;0.31;100.00
9474;BME280;8865;47.636;7.692;2022-12-11T15:05:31;97556.31;;;0.06;100.00